Time;durP1;ratioP1;P1;durP2;ratioP2;P2;SDS_P1;SDS_P2;PMS_P1;PMS_P2;Temp;Humidity;BMP_temperature;BMP_pressure;BME280_temperature;BME280_humidity;BME280_pressure;Samples;Min_cycle;Max_cycle;Signal;HPM_P1;HPM_P2
2021/09/16 05:12:46;;;;;;;19.95;14.05;;;18.10;99.90;;;;;;5837127;23;20114;-93
2021/09/16 05:15:12;;;;;;;20.65;14.15;;;18.10;99.90;;;;;;4937235;29;20393;-94
2021/09/16 05:17:38;;;;;;;20.40;14.68;;;18.20;99.90;;;;;;4954575;28;20103;-94
2021/09/16 05:20:04;;;;;;;17.55;14.57;;;18.20;99.90;;;;;;4954412;28;20119;-94
2021/09/16 05:22:30;;;;;;;17.05;14.13;;;18.20;99.90;;;;;;4953355;28;20027;-93
2021/09/16 05:24:55;;;;;;;19.20;14.60;;;18.30;99.90;;;;;;4954505;28;20031;-92
2021/09/16 05:27:21;;;;;;;19.80;13.70;;;18.30;99.90;;;;;;4953152;28;20416;-93
2021/09/16 05:29:49;;;;;;;16.92;14.15;;;18.30;99.90;;;;;;4953426;28;20024;-93
2021/09/16 05:32:15;;;;;;;17.35;14.10;;;18.30;99.90;;;;;;4952811;28;20042;-94
2021/09/16 05:34:41;;;;;;;17.10;13.40;;;18.30;99.90;;;;;;4953175;28;20396;-93
2021/09/16 05:37:07;;;;;;;17.70;14.20;;;18.30;99.90;;;;;;4954039;28;20038;-91
2021/09/16 05:39:33;;;;;;;19.98;14.38;;;18.30;99.90;;;;;;4954274;28;20023;-92
2021/09/16 05:41:58;;;;;;;16.90;14.50;;;18.20;99.90;;;;;;4954738;28;20571;-92
2021/09/16 05:44:24;;;;;;;18.00;15.30;;;18.20;99.90;;;;;;4952792;28;20020;-91
2021/09/16 05:46:50;;;;;;;20.13;14.43;;;18.20;99.90;;;;;;4951583;28;20110;-91
2021/09/16 05:49:15;;;;;;;20.20;14.38;;;18.10;99.90;;;;;;4951687;28;20616;-92
2021/09/16 05:51:41;;;;;;;20.83;15.23;;;18.00;99.90;;;;;;4953178;28;20035;-90
2021/09/16 05:54:07;;;;;;;19.67;14.80;;;18.00;99.90;;;;;;4951637;28;20027;-90
2021/09/16 05:56:33;;;;;;;23.70;15.60;;;18.00;99.90;;;;;;4953036;28;20042;-90
2021/09/16 05:58:58;;;;;;;21.88;15.18;;;18.00;99.90;;;;;;4953685;29;20027;-90
2021/09/16 06:01:25;;;;;;;22.85;16.63;;;18.00;99.90;;;;;;4952678;28;20041;-89
2021/09/16 06:03:50;;;;;;;20.08;14.68;;;17.90;99.90;;;;;;4954268;29;20031;-90
2021/09/16 06:06:16;;;;;;;19.88;15.40;;;17.80;99.90;;;;;;4953694;29;20332;-89
2021/09/16 06:08:43;;;;;;;19.15;15.57;;;17.80;99.90;;;;;;4952186;28;20038;-89
2021/09/16 06:11:09;;;;;;;18.73;15.60;;;17.80;99.90;;;;;;4952403;28;20555;-90
2021/09/16 06:13:35;;;;;;;19.15;15.57;;;17.80;99.90;;;;;;4951409;28;20567;-89
2021/09/16 06:16:00;;;;;;;17.88;14.63;;;17.80;99.90;;;;;;4952925;28;20083;-90
2021/09/16 06:18:26;;;;;;;21.58;15.68;;;17.90;99.90;;;;;;4952743;28;20392;-89
2021/09/16 06:20:52;;;;;;;17.67;15.43;;;17.90;99.90;;;;;;4952945;28;20420;-89
2021/09/16 06:23:18;;;;;;;22.95;16.20;;;18.00;99.90;;;;;;4952628;28;20206;-93
2021/09/16 06:25:43;;;;;;;19.85;16.15;;;18.00;99.90;;;;;;4952541;28;20063;-93
2021/09/16 06:28:09;;;;;;;20.67;15.32;;;18.00;99.90;;;;;;4951079;28;20078;-92
2021/09/16 06:30:35;;;;;;;20.60;15.18;;;18.10;99.90;;;;;;4951137;28;20031;-92
2021/09/16 06:33:01;;;;;;;20.35;15.82;;;18.10;99.90;;;;;;4951120;28;20047;-93
2021/09/16 06:35:26;;;;;;;19.20;16.15;;;18.00;99.90;;;;;;4952516;28;20028;-93
2021/09/16 06:37:52;;;;;;;22.67;17.25;;;18.00;99.90;;;;;;4951294;28;20276;-93
2021/09/16 06:40:18;;;;;;;22.60;15.88;;;18.00;99.90;;;;;;4952342;28;20027;-93
2021/09/16 06:42:44;;;;;;;18.38;14.52;;;18.00;99.90;;;;;;4951134;28;20027;-93
2021/09/16 06:45:10;;;;;;;20.45;16.20;;;18.00;99.90;;;;;;4953335;28;20403;-92
2021/09/16 06:47:36;;;;;;;20.35;17.25;;;18.00;99.90;;;;;;4952573;28;20023;-92
2021/09/16 06:50:02;;;;;;;22.83;17.02;;;18.00;99.90;;;;;;4954005;28;20178;-92
2021/09/16 06:52:28;;;;;;;19.95;17.00;;;18.00;99.90;;;;;;4954186;28;20042;-92
2021/09/16 06:54:56;;;;;;;22.42;17.45;;;18.00;99.90;;;;;;4952472;28;20396;-93
2021/09/16 06:57:22;;;;;;;23.05;16.73;;;18.00;99.90;;;;;;4953393;28;20023;-92
2021/09/16 06:59:48;;;;;;;21.08;17.23;;;18.00;99.90;;;;;;4951434;28;20369;-94
2021/09/16 07:02:13;;;;;;;20.52;17.08;;;18.00;99.90;;;;;;4952583;28;20039;-91
2021/09/16 07:04:39;;;;;;;22.25;17.15;;;17.90;99.90;;;;;;4951044;28;20239;-89
2021/09/16 07:07:06;;;;;;;19.88;16.13;;;18.00;99.90;;;;;;4952341;28;20033;-89
2021/09/16 07:09:33;;;;;;;22.60;16.50;;;18.00;99.90;;;;;;4951233;28;20063;-92
2021/09/16 07:11:59;;;;;;;31.65;18.75;;;18.00;99.90;;;;;;4952133;28;20431;-88
2021/09/16 07:14:27;;;;;;;19.60;17.20;;;18.10;99.90;;;;;;4952671;28;20122;-89
2021/09/16 07:16:58;;;;;;;20.88;17.30;;;18.10;99.90;;;;;;4952050;28;20046;-89
2021/09/16 07:19:24;;;;;;;32.85;25.77;;;18.20;99.90;;;;;;4952115;29;20031;-88
2021/09/16 07:21:50;;;;;;;43.80;33.92;;;18.30;99.90;;;;;;4952209;28;20452;-90
2021/09/16 07:24:16;;;;;;;32.45;24.60;;;18.30;99.90;;;;;;4950804;29;20139;-91
2021/09/16 07:26:42;;;;;;;27.65;19.95;;;18.50;99.90;;;;;;4950948;28;20591;-92
2021/09/16 07:29:08;;;;;;;22.13;17.40;;;18.50;99.90;;;;;;4951585;28;20019;-89
2021/09/16 07:31:35;;;;;;;22.88;18.10;;;18.50;99.90;;;;;;4951183;28;20552;-91
2021/09/16 07:34:01;;;;;;;35.58;19.70;;;18.60;99.90;;;;;;4951017;28;20024;-91
2021/09/16 07:36:27;;;;;;;36.25;24.45;;;18.80;99.90;;;;;;4950897;28;20042;-93
2021/09/16 07:38:53;;;;;;;23.55;18.00;;;18.80;99.90;;;;;;4949823;28;20397;-92
2021/09/16 07:41:18;;;;;;;22.90;19.52;;;18.90;99.90;;;;;;4952356;29;20032;-92
2021/09/16 07:43:44;;;;;;;25.90;19.25;;;19.00;99.90;;;;;;4952295;28;20030;-92
2021/09/16 07:46:10;;;;;;;25.17;18.50;;;19.20;99.90;;;;;;4951221;28;20024;-92
2021/09/16 07:48:36;;;;;;;27.33;17.60;;;19.20;99.90;;;;;;4952405;28;20019;-92
2021/09/16 07:51:01;;;;;;;18.85;15.43;;;19.20;99.90;;;;;;4952516;28;20157;-92
2021/09/16 07:53:29;;;;;;;20.75;16.17;;;19.30;99.90;;;;;;4952205;28;20031;-92
2021/09/16 07:55:57;;;;;;;23.48;17.05;;;19.40;99.90;;;;;;4950775;28;20019;-92
2021/09/16 07:58:23;;;;;;;21.17;17.73;;;19.50;99.90;;;;;;4952421;28;20027;-92
2021/09/16 08:00:51;;;;;;;22.40;18.15;;;19.70;99.90;;;;;;4954324;28;20467;-92
2021/09/16 08:03:17;;;;;;;23.08;16.73;;;19.80;99.90;;;;;;4954374;28;20462;-92
2021/09/16 08:05:43;;;;;;;19.60;16.13;;;19.80;99.90;;;;;;4954344;28;20031;-92
2021/09/16 08:08:09;;;;;;;20.67;15.00;;;19.90;99.90;;;;;;4955492;28;20074;-92
2021/09/16 08:10:35;;;;;;;20.63;16.45;;;20.00;99.90;;;;;;4954474;28;20023;-92
2021/09/16 08:13:01;;;;;;;22.60;16.38;;;19.90;99.90;;;;;;4954242;28;20051;-92
2021/09/16 08:15:27;;;;;;;24.00;19.00;;;19.80;99.90;;;;;;4955963;28;20026;-92
2021/09/16 08:17:53;;;;;;;22.20;17.98;;;19.60;99.90;;;;;;4955443;28;20027;-92
2021/09/16 08:20:19;;;;;;;23.13;17.40;;;19.60;99.90;;;;;;4953204;28;20016;-92
2021/09/16 08:22:45;;;;;;;24.83;19.83;;;19.70;99.90;;;;;;4954570;28;20058;-92
2021/09/16 08:25:13;;;;;;;22.13;18.05;;;19.80;99.90;;;;;;4954226;28;20031;-92
2021/09/16 08:27:38;;;;;;;22.35;17.17;;;19.90;99.90;;;;;;4953290;28;20078;-92
2021/09/16 08:30:07;;;;;;;23.60;17.80;;;20.10;99.90;;;;;;4954204;28;20031;-91
2021/09/16 08:32:33;;;;;;;20.23;17.55;;;20.30;99.90;;;;;;4936727;29;20031;-92
2021/09/16 08:34:59;;;;;;;24.92;17.25;;;20.50;99.90;;;;;;4969428;28;20030;-93
2021/09/16 08:37:25;;;;;;;34.92;18.92;;;20.60;99.90;;;;;;4973957;28;20027;-92
2021/09/16 08:39:51;;;;;;;26.60;18.63;;;20.60;99.90;;;;;;4973799;28;20027;-91
2021/09/16 08:42:17;;;;;;;20.58;16.88;;;20.40;99.90;;;;;;4973499;28;20027;-92
2021/09/16 08:44:43;;;;;;;44.97;20.50;;;20.20;99.90;;;;;;4973504;28;20031;-92
2021/09/16 08:47:14;;;;;;;23.05;17.55;;;20.20;99.90;;;;;;4972498;28;20133;-92
2021/09/16 08:49:40;;;;;;;20.70;16.88;;;20.30;99.90;;;;;;4966820;28;20027;-91
2021/09/16 08:52:07;;;;;;;26.23;20.00;;;20.20;99.90;;;;;;4970503;28;20079;-92
2021/09/16 08:54:34;;;;;;;23.88;16.80;;;20.30;99.90;;;;;;4968854;28;20268;-92
2021/09/16 08:57:01;;;;;;;33.78;24.42;;;20.40;99.90;;;;;;4955246;28;20058;-93
2021/09/16 08:59:29;;;;;;;25.17;18.63;;;20.60;99.90;;;;;;4955346;28;20044;-92
2021/09/16 09:01:55;;;;;;;25.33;18.95;;;20.70;99.90;;;;;;4953341;28;20054;-92
2021/09/16 09:04:21;;;;;;;17.50;14.82;;;20.80;99.90;;;;;;4954785;28;20504;-92
2021/09/16 09:06:47;;;;;;;20.58;17.33;;;21.00;99.90;;;;;;4954437;28;20035;-92
2021/09/16 09:09:19;;;;;;;21.67;16.52;;;21.20;99.90;;;;;;4953437;28;20023;-92
2021/09/16 09:11:59;;;;;;;21.40;17.42;;;21.20;99.90;;;;;;4953241;28;20038;-91
2021/09/16 09:14:32;;;;;;;21.38;17.45;;;21.10;99.90;;;;;;4954223;28;20048;-92
2021/09/16 09:16:59;;;;;;;23.27;17.13;;;21.00;99.90;;;;;;4953031;28;20035;-92
2021/09/16 09:19:28;;;;;;;23.27;17.88;;;21.10;99.90;;;;;;4953064;28;20404;-92
2021/09/16 09:21:55;;;;;;;19.90;16.25;;;21.00;99.90;;;;;;4952989;28;20023;-92
2021/09/16 09:24:32;;;;;;;22.33;17.90;;;21.10;99.90;;;;;;4952827;28;20396;-92
2021/09/16 09:26:59;;;;;;;19.83;16.38;;;21.30;99.90;;;;;;4952721;28;20101;-92
2021/09/16 09:29:24;;;;;;;18.33;16.05;;;21.10;99.90;;;;;;4952910;28;20068;-93
2021/09/16 09:32:02;;;;;;;21.05;15.80;;;21.10;99.90;;;;;;4953907;28;20524;-92
2021/09/16 09:34:31;;;;;;;19.95;15.88;;;21.40;99.90;;;;;;4954239;28;20024;-92
2021/09/16 09:37:09;;;;;;;21.58;17.23;;;21.60;99.90;;;;;;4953096;28;20519;-92
2021/09/16 09:39:35;;;;;;;19.30;16.55;;;21.70;99.90;;;;;;4951767;28;20047;-92
2021/09/16 09:42:34;;;;;;;17.75;15.55;;;21.80;99.90;;;;;;4952169;28;20055;-88
2021/09/16 09:45:08;;;;;;;20.35;16.20;;;21.80;99.90;;;;;;4941294;28;20074;-89
2021/09/16 09:47:42;;;;;;;20.60;16.35;;;21.80;99.90;;;;;;4952698;28;20015;-88
2021/09/16 09:50:18;;;;;;;;;;;21.70;99.90;;;;;;4952298;28;20059;-74
2021/09/16 09:52:44;;;;;;;21.85;15.82;;;21.90;99.90;;;;;;4952391;28;19914;-74
2021/09/16 09:55:14;;;;;;;20.73;14.60;;;22.00;99.90;;;;;;4952827;28;20026;-74
2021/09/16 09:57:40;;;;;;;17.17;13.75;;;22.20;99.90;;;;;;4952518;28;20436;-74
2021/09/16 10:00:10;;;;;;;17.60;13.45;;;22.20;99.90;;;;;;4952994;29;20099;-74
2021/09/16 10:02:39;;;;;;;21.27;16.42;;;22.20;99.90;;;;;;4952531;29;20026;-74
2021/09/16 10:05:19;;;;;;;26.77;17.90;;;22.10;99.90;;;;;;4952403;28;20109;-74
2021/09/16 10:07:45;;;;;;;19.85;15.30;;;21.90;99.90;;;;;;4952712;28;20063;-74
2021/09/16 10:10:12;;;;;;;23.40;15.25;;;21.80;99.90;;;;;;4952253;28;20440;-74
2021/09/16 10:12:39;;;;;;;19.23;15.85;;;21.80;99.90;;;;;;4952337;28;20423;-75
2021/09/16 10:15:23;;;;;;;23.45;17.20;;;21.70;99.90;;;;;;4952405;29;20053;-74
2021/09/16 10:17:52;;;;;;;25.55;16.48;;;21.50;99.90;;;;;;4952695;28;20492;-74
2021/09/16 10:20:23;;;;;;;22.58;17.38;;;21.40;99.90;;;;;;4952004;28;20496;-74
2021/09/16 10:22:55;;;;;;;22.02;16.60;;;21.40;99.90;;;;;;4951791;28;20031;-74
2021/09/16 10:25:24;;;;;;;22.42;17.38;;;21.20;99.90;;;;;;4951969;28;20012;-74
2021/09/16 10:27:59;;;;;;;20.20;16.58;;;21.30;99.90;;;;;;4952313;29;20038;-75
2021/09/16 10:30:24;;;;;;;;;;;21.40;99.90;;;;;;4952528;28;20027;-74
2021/09/16 10:33:12;;;;;;;24.67;18.35;;;21.40;99.90;;;;;;4951691;28;19915;-74
2021/09/16 10:35:45;;;;;;;20.40;16.63;;;21.40;99.90;;;;;;4952096;28;20054;-75
2021/09/16 10:38:36;;;;;;;22.95;18.02;;;21.40;99.90;;;;;;4952045;28;20066;-75
2021/09/16 10:41:17;;;;;;;24.83;19.75;;;21.40;99.90;;;;;;4951906;28;20019;-75
2021/09/16 10:43:47;;;;;;;24.73;18.02;;;21.30;99.90;;;;;;4951918;28;20037;-74
2021/09/16 10:46:40;;;;;;;22.30;18.65;;;21.20;99.90;;;;;;4951928;29;20031;-75
2021/09/16 10:49:26;;;;;;;25.60;19.45;;;21.10;99.90;;;;;;4951801;28;20054;-75
2021/09/16 10:51:57;;;;;;;25.08;19.52;;;21.10;99.90;;;;;;4951925;29;20039;-75
2021/09/16 10:54:27;;;;;;;23.92;19.40;;;21.10;99.90;;;;;;4951731;28;20050;-75
2021/09/16 10:57:14;;;;;;;26.23;20.25;;;21.30;99.90;;;;;;4950535;29;20397;-75
2021/09/16 11:02:19;;;;;;;24.83;20.02;;;21.40;99.90;;;;;;4951604;28;20062;-75
2021/09/16 11:04:54;;;;;;;26.98;20.73;;;21.40;99.90;;;;;;4951758;28;20090;-75
2021/09/16 11:07:32;;;;;;;25.10;20.20;;;21.40;99.90;;;;;;4951921;29;20086;-75
2021/09/16 11:10:16;;;;;;;27.63;20.02;;;21.50;99.90;;;;;;4951623;28;20038;-75
2021/09/16 11:12:51;;;;;;;25.10;19.02;;;21.50;99.90;;;;;;4952043;28;20066;-75
2021/09/16 11:15:24;;;;;;;28.98;21.23;;;21.60;99.90;;;;;;4951881;28;20031;-74
2021/09/16 11:17:50;;;;;;;24.80;16.90;;;21.70;99.90;;;;;;4950133;28;20114;-74
2021/09/16 11:20:19;;;;;;;28.02;17.90;;;21.70;99.90;;;;;;4951536;29;20094;-76
2021/09/16 11:22:49;;;;;;;25.98;18.85;;;22.00;99.90;;;;;;4951611;28;20070;-75
2021/09/16 11:25:15;;;;;;;31.55;18.30;;;22.20;99.90;;;;;;4951490;28;20611;-75
2021/09/16 11:27:41;;;;;;;24.02;18.65;;;22.20;99.90;;;;;;4951782;28;20285;-75
2021/09/16 11:30:14;;;;;;;21.40;15.93;;;22.20;99.90;;;;;;4951630;29;20111;-75
2021/09/16 11:32:40;;;;;;;21.15;18.33;;;22.30;99.90;;;;;;4951372;28;20505;-75
2021/09/16 11:35:14;;;;;;;24.35;18.52;;;22.30;99.90;;;;;;4953980;28;20397;-75
2021/09/16 11:37:48;;;;;;;24.10;16.65;;;22.10;99.90;;;;;;4954783;29;20562;-75
2021/09/16 11:40:16;;;;;;;21.10;15.73;;;22.10;99.90;;;;;;4953631;28;20118;-75
2021/09/16 11:42:45;;;;;;;22.98;17.15;;;22.20;99.90;;;;;;4954970;28;20031;-75
2021/09/16 11:45:28;;;;;;;19.05;15.38;;;22.40;99.90;;;;;;4954948;28;20031;-75
2021/09/16 11:47:57;;;;;;;18.77;15.33;;;22.50;99.90;;;;;;4954834;28;20026;-75
2021/09/16 11:50:57;;;;;;;21.50;16.90;;;22.70;99.90;;;;;;4954896;28;20023;-75
2021/09/16 11:53:32;;;;;;;25.00;18.60;;;22.80;99.90;;;;;;4943028;28;20535;-75
2021/09/16 11:56:00;;;;;;;21.98;17.65;;;22.60;99.90;;;;;;4953432;28;20035;-75
2021/09/16 11:58:34;;;;;;;21.42;16.50;;;22.40;99.90;;;;;;4954730;28;20034;-75
2021/09/16 12:01:03;;;;;;;23.60;16.50;;;22.50;99.90;;;;;;4954868;28;20496;-75
2021/09/16 12:03:34;;;;;;;23.75;16.02;;;22.60;99.90;;;;;;4954644;28;20031;-75
2021/09/16 12:06:04;;;;;;;20.27;15.65;;;22.70;99.90;;;;;;4954711;28;20027;-75
2021/09/16 12:08:38;;;;;;;22.23;16.33;;;22.90;99.90;;;;;;4954445;28;20024;-75
2021/09/16 12:11:06;;;;;;;;;;;23.10;99.90;;;;;;4954952;28;20034;-73
2021/09/16 12:13:43;;;;;;;17.63;14.75;;;23.10;99.90;;;;;;4954594;28;20037;-73
2021/09/16 12:16:12;;;;;;;20.58;15.10;;;23.10;99.90;;;;;;4954615;29;20035;-73
2021/09/16 12:18:49;;;;;;;25.35;16.52;;;23.20;99.90;;;;;;4954108;28;20034;-73
2021/09/16 12:21:24;;;;;;;18.50;15.15;;;23.10;99.90;;;;;;4954377;28;20019;-73
2021/09/16 12:23:53;;;;;;;24.30;15.57;;;23.00;99.90;;;;;;4954461;28;20399;-73
2021/09/16 12:26:29;;;;;;;33.65;15.45;;;23.00;99.90;;;;;;4954247;28;20022;-73
2021/09/16 12:29:25;;;;;;;20.35;14.60;;;23.20;99.90;;;;;;4954013;28;20083;-72
2021/09/16 12:31:55;;;;;;;22.00;14.63;;;23.30;99.90;;;;;;4941435;28;20039;-73
2021/09/16 12:34:21;;;;;;;20.52;15.18;;;23.30;99.90;;;;;;4954199;28;20030;-73
2021/09/16 12:36:54;;;;;;;17.70;13.98;;;23.20;99.90;;;;;;4953955;29;20492;-73
2021/09/16 12:39:21;;;;;;;20.70;12.68;;;23.40;99.90;;;;;;4954178;29;20026;-73
2021/09/16 12:41:49;;;;;;;19.33;13.90;;;23.50;99.90;;;;;;4954229;28;20411;-73
2021/09/16 12:44:42;;;;;;;17.50;13.68;;;23.60;99.90;;;;;;4953495;28;20520;-73
2021/09/16 12:47:10;;;;;;;17.23;12.00;;;23.60;99.90;;;;;;4952611;28;20039;-72
2021/09/16 12:49:37;;;;;;;16.88;11.32;;;23.70;99.90;;;;;;4953880;29;20114;-73
2021/09/16 12:52:03;;;;;;;17.55;13.60;;;23.90;99.90;;;;;;4953624;29;20039;-73
2021/09/16 12:54:30;;;;;;;16.35;13.02;;;24.00;99.90;;;;;;4953827;28;20030;-73
2021/09/16 12:56:56;;;;;;;17.55;12.05;;;23.90;99.90;;;;;;4953770;28;20023;-75
2021/09/16 12:59:26;;;;;;;17.25;11.25;;;23.90;99.90;;;;;;4953628;28;20441;-75
2021/09/16 13:02:11;;;;;;;15.13;12.55;;;24.00;99.90;;;;;;4952508;28;20058;-75
2021/09/16 13:05:04;;;;;;;;;;;24.20;99.90;;;;;;4953964;28;20023;-75
2021/09/16 13:07:40;;;;;;;14.00;10.52;;;24.20;99.90;;;;;;4953433;28;19910;-76
2021/09/16 13:10:21;;;;;;;17.00;11.50;;;24.50;99.90;;;;;;4953655;28;20031;-75
2021/09/16 13:12:49;;;;;;;14.52;10.45;;;24.40;99.90;;;;;;4953005;28;20401;-75
2021/09/16 13:15:16;;;;;;;14.85;12.18;;;24.60;99.90;;;;;;4953478;28;20504;-75
2021/09/16 13:17:42;;;;;;;13.95;11.80;;;24.70;99.90;;;;;;4953283;28;20400;-75
2021/09/16 13:20:10;;;;;;;16.35;10.38;;;24.60;99.90;;;;;;4953494;28;20035;-76
2021/09/16 13:22:37;;;;;;;11.20;8.32;;;24.80;99.90;;;;;;4953256;28;20033;-76
2021/09/16 13:25:07;;;;;;;11.30;9.50;;;25.00;99.90;;;;;;4952870;28;20087;-76
2021/09/16 13:27:34;;;;;;;12.10;10.13;;;25.20;99.90;;;;;;4953090;28;20106;-76
2021/09/16 13:29:59;;;;;;;42.03;10.23;;;25.00;99.90;;;;;;4952776;28;20408;-75
2021/09/16 13:32:25;;;;;;;8.50;7.60;;;25.10;99.90;;;;;;4953211;28;20035;-75
2021/09/16 13:34:51;;;;;;;12.25;9.05;;;25.20;99.90;;;;;;4953013;28;20035;-76
2021/09/16 13:37:16;;;;;;;13.68;10.27;;;25.40;99.90;;;;;;4952787;28;20055;-75
2021/09/16 13:39:42;;;;;;;12.07;8.30;;;25.20;99.90;;;;;;4952929;29;20015;-75
2021/09/16 13:42:08;;;;;;;16.25;8.25;;;25.10;99.90;;;;;;4952562;28;20058;-75
2021/09/16 13:44:34;;;;;;;11.35;8.70;;;25.30;99.90;;;;;;4952761;28;20067;-75
2021/09/16 13:47:00;;;;;;;14.57;10.48;;;25.50;99.90;;;;;;4952375;28;20035;-75
2021/09/16 13:49:25;;;;;;;14.55;10.23;;;25.30;99.90;;;;;;4953122;28;20032;-75
2021/09/16 13:51:51;;;;;;;12.10;10.65;;;25.30;99.90;;;;;;4952999;28;20428;-72
2021/09/16 13:54:16;;;;;;;14.13;9.77;;;25.10;99.90;;;;;;4952549;29;20019;-72
2021/09/16 13:56:42;;;;;;;13.18;10.23;;;24.90;99.90;;;;;;4951998;28;20027;-72
2021/09/16 13:59:08;;;;;;;15.95;9.27;;;24.90;99.90;;;;;;4952338;29;20066;-73
2021/09/16 14:01:34;;;;;;;10.63;8.95;;;25.00;99.90;;;;;;4952454;28;20046;-72
2021/09/16 14:03:59;;;;;;;12.50;8.50;;;25.20;99.90;;;;;;4952223;29;20412;-72
2021/09/16 14:06:28;;;;;;;11.07;8.23;;;25.30;99.90;;;;;;4952859;28;20046;-72
2021/09/16 14:08:53;;;;;;;11.98;7.93;;;25.40;99.90;;;;;;4952438;28;20023;-73
2021/09/16 14:11:19;;;;;;;15.52;7.88;;;25.40;99.90;;;;;;4952162;28;20031;-73
2021/09/16 14:13:44;;;;;;;12.40;8.38;;;25.50;99.90;;;;;;4952312;28;20408;-73
2021/09/16 14:16:10;;;;;;;9.20;7.47;;;25.60;99.90;;;;;;4952196;28;20062;-73
2021/09/16 14:18:36;;;;;;;12.02;7.55;;;25.90;99.90;;;;;;4952495;29;20492;-73
2021/09/16 14:21:03;;;;;;;12.40;7.15;;;26.00;99.90;;;;;;4952104;29;20031;-73
2021/09/16 14:23:28;;;;;;;8.98;6.35;;;26.40;99.90;;;;;;4952320;29;20019;-73
2021/09/16 14:25:54;;;;;;;8.57;6.68;;;26.90;99.90;;;;;;4951917;28;20389;-73
2021/09/16 14:28:20;;;;;;;11.20;6.47;;;27.10;99.90;;;;;;4952044;28;20028;-73
2021/09/16 14:30:46;;;;;;;9.95;6.75;;;27.10;99.90;;;;;;4952188;28;20081;-73
2021/09/16 14:33:12;;;;;;;9.10;7.10;;;27.70;99.90;;;;;;4951835;28;20031;-73
2021/09/16 14:35:38;;;;;;;10.80;7.13;;;27.10;99.90;;;;;;4951859;28;20150;-73
2021/09/16 14:38:05;;;;;;;9.25;6.00;;;27.10;99.90;;;;;;4951821;28;20484;-75
2021/09/16 14:40:32;;;;;;;9.27;7.70;;;27.50;99.90;;;;;;4952069;28;20016;-75
2021/09/16 14:42:58;;;;;;;7.10;5.70;;;28.10;99.10;;;;;;4951756;28;20038;-75
2021/09/16 14:45:24;;;;;;;9.57;5.72;;;29.50;97.50;;;;;;4951863;28;20031;-74
2021/09/16 14:47:50;;;;;;;11.95;6.45;;;30.70;94.80;;;;;;4951733;28;20027;-74
2021/09/16 14:50:16;;;;;;;8.30;5.88;;;31.00;93.40;;;;;;4951982;28;20062;-75
2021/09/16 14:52:42;;;;;;;11.20;6.28;;;30.80;93.00;;;;;;4951527;28;20039;-75
2021/09/16 14:55:09;;;;;;;6.43;4.15;;;31.20;92.00;;;;;;4951679;28;20011;-75
2021/09/16 14:57:35;;;;;;;11.30;5.57;;;32.70;90.80;;;;;;4951471;28;20034;-75
2021/09/16 15:00:00;;;;;;;16.10;6.13;;;33.30;87.20;;;;;;4951622;29;20024;-75
2021/09/16 15:02:26;;;;;;;10.00;6.32;;;33.10;85.20;;;;;;4951780;28;20101;-73
2021/09/16 15:04:52;;;;;;;6.88;5.60;;;32.60;85.40;;;;;;4951738;28;20507;-73
2021/09/16 15:07:17;;;;;;;12.65;5.35;;;32.20;87.30;;;;;;4951664;28;20408;-73
2021/09/16 15:09:43;;;;;;;8.55;5.80;;;32.30;86.80;;;;;;4955621;28;20023;-73
2021/09/16 15:12:09;;;;;;;8.60;4.82;;;32.00;86.10;;;;;;4955439;29;20050;-73
2021/09/16 15:14:34;;;;;;;7.47;4.85;;;32.20;85.40;;;;;;4955227;29;20048;-73
2021/09/16 15:17:00;;;;;;;6.47;4.55;;;33.10;83.70;;;;;;4955323;29;20085;-73
2021/09/16 15:19:26;;;;;;;6.35;5.03;;;32.20;83.00;;;;;;4955186;29;20031;-72
2021/09/16 15:21:51;;;;;;;7.78;4.13;;;32.10;82.60;;;;;;4955421;29;20035;-72
2021/09/16 15:24:17;;;;;;;8.25;4.85;;;31.70;83.90;;;;;;4955381;28;20067;-74
2021/09/16 15:26:44;;;;;;;6.43;3.83;;;32.40;81.80;;;;;;4954002;28;20387;-74
2021/09/16 15:29:10;;;;;;;10.25;4.65;;;32.30;81.80;;;;;;4955196;28;20023;-75
2021/09/16 15:31:36;;;;;;;8.35;4.85;;;33.50;78.90;;;;;;4954902;28;20030;-74
2021/09/16 15:34:02;;;;;;;6.85;5.60;;;32.50;79.90;;;;;;4954953;28;20020;-74
2021/09/16 15:36:30;;;;;;;9.15;5.82;;;31.90;80.20;;;;;;4955063;28;20051;-75
2021/09/16 15:38:57;;;;;;;7.65;4.10;;;30.70;83.00;;;;;;4954839;28;20307;-75
2021/09/16 15:41:22;;;;;;;8.13;4.90;;;31.00;84.20;;;;;;4955006;28;20031;-74
2021/09/16 15:43:48;;;;;;;8.32;4.38;;;31.40;81.70;;;;;;4954986;28;20031;-74
2021/09/16 15:46:14;;;;;;;6.57;4.28;;;31.10;82.20;;;;;;4954936;29;20551;-75
2021/09/16 15:48:39;;;;;;;6.13;3.60;;;30.70;84.20;;;;;;4954765;28;20288;-75
2021/09/16 15:51:05;;;;;;;7.05;3.80;;;31.00;84.40;;;;;;4955165;28;20109;-75
2021/09/16 15:53:31;;;;;;;10.13;4.18;;;30.70;86.50;;;;;;4954600;28;20042;-74
2021/09/16 15:55:57;;;;;;;6.47;4.28;;;30.70;85.90;;;;;;4954775;29;20114;-75
2021/09/16 15:58:24;;;;;;;10.48;3.72;;;29.80;87.30;;;;;;4954804;28;20436;-74
2021/09/16 16:00:50;;;;;;;6.75;3.40;;;29.10;89.80;;;;;;4954618;29;20166;-75
2021/09/16 16:03:16;;;;;;;7.15;3.63;;;29.30;90.40;;;;;;4954551;29;20103;-75
2021/09/16 16:05:47;;;;;;;6.15;3.72;;;29.30;90.10;;;;;;4954520;28;20039;-74
2021/09/16 16:08:13;;;;;;;12.05;3.30;;;29.00;91.20;;;;;;4954382;28;20015;-74
2021/09/16 16:10:38;;;;;;;7.93;3.55;;;28.80;91.20;;;;;;4954405;28;20408;-75
2021/09/16 16:13:04;;;;;;;9.13;4.03;;;28.70;91.20;;;;;;4954001;28;20051;-74
2021/09/16 16:15:30;;;;;;;5.60;4.05;;;28.20;91.40;;;;;;4954509;28;20023;-75
2021/09/16 16:17:55;;;;;;;5.95;3.17;;;28.40;91.60;;;;;;4954181;29;20500;-74
2021/09/16 16:20:21;;;;;;;10.23;3.60;;;28.20;91.70;;;;;;4953542;28;20105;-75
2021/09/16 16:22:47;;;;;;;6.63;3.60;;;28.30;91.80;;;;;;4954138;29;20038;-73
2021/09/16 16:25:13;;;;;;;8.85;3.65;;;28.00;91.80;;;;;;4954166;29;20031;-73
2021/09/16 16:27:40;;;;;;;8.40;3.42;;;28.00;91.90;;;;;;4954156;28;20053;-74
2021/09/16 16:30:08;;;;;;;9.00;3.83;;;28.40;91.60;;;;;;4953960;28;20034;-74
2021/09/16 16:32:34;;;;;;;10.48;3.42;;;29.20;90.30;;;;;;4954227;28;20511;-73
2021/09/16 16:35:00;;;;;;;6.70;3.70;;;28.60;90.90;;;;;;4953997;28;20058;-73
2021/09/16 16:37:26;;;;;;;6.30;3.50;;;27.90;91.40;;;;;;4954033;28;20027;-73
2021/09/16 16:39:51;;;;;;;9.15;4.10;;;27.50;92.30;;;;;;4953983;28;20077;-73
2021/09/16 16:42:17;;;;;;;8.00;3.85;;;26.80;93.40;;;;;;4953818;28;20024;-73
2021/09/16 16:44:43;;;;;;;7.97;3.70;;;26.10;95.20;;;;;;4953970;28;20027;-72
2021/09/16 16:47:09;;;;;;;7.75;4.90;;;26.10;95.40;;;;;;4954211;29;20118;-73
2021/09/16 16:49:34;;;;;;;10.80;4.45;;;25.30;97.50;;;;;;4953750;29;20024;-73
2021/09/16 16:52:00;;;;;;;8.85;4.65;;;24.80;99.10;;;;;;4953830;29;20031;-73
2021/09/16 16:54:26;;;;;;;9.30;4.40;;;24.90;99.20;;;;;;4953870;29;20031;-73
2021/09/16 16:56:52;;;;;;;9.00;4.28;;;24.40;99.90;;;;;;4953989;28;20475;-72
2021/09/16 16:59:18;;;;;;;10.25;4.50;;;24.00;99.90;;;;;;4953910;28;20034;-72
2021/09/16 17:01:44;;;;;;;10.43;4.35;;;23.90;99.90;;;;;;4953602;29;20106;-72
2021/09/16 17:04:13;;;;;;;8.32;4.53;;;23.50;99.90;;;;;;4953360;28;20412;-73
2021/09/16 17:06:42;;;;;;;8.75;5.13;;;23.40;99.90;;;;;;4953585;28;20086;-73
2021/09/16 17:09:09;;;;;;;9.13;5.07;;;22.90;99.90;;;;;;4953495;29;20530;-72
2021/09/16 17:11:35;;;;;;;13.07;4.97;;;22.40;99.90;;;;;;4953866;29;20078;-73
2021/09/16 17:14:01;;;;;;;9.15;4.75;;;22.20;99.90;;;;;;4953335;28;20055;-73
2021/09/16 17:16:26;;;;;;;11.20;4.53;;;22.10;99.90;;;;;;4951791;29;20033;-73
2021/09/16 17:18:52;;;;;;;10.93;4.95;;;22.20;99.90;;;;;;4953755;28;20038;-73
2021/09/16 17:21:18;;;;;;;12.27;5.38;;;22.00;99.90;;;;;;4953249;29;20098;-73
2021/09/16 17:23:43;;;;;;;8.90;4.93;;;21.90;99.90;;;;;;4951997;28;20468;-72
2021/09/16 17:26:11;;;;;;;11.82;5.25;;;21.80;99.90;;;;;;4953084;28;20536;-73
2021/09/16 17:28:37;;;;;;;8.52;5.10;;;21.60;99.90;;;;;;4953147;29;20106;-73
2021/09/16 17:31:03;;;;;;;10.98;5.35;;;21.60;99.90;;;;;;4952378;28;20047;-73
2021/09/16 17:33:28;;;;;;;10.85;5.32;;;21.60;99.90;;;;;;4952571;28;21196;-73
2021/09/16 17:35:54;;;;;;;9.57;5.05;;;21.60;99.90;;;;;;4953055;28;20035;-73
2021/09/16 17:38:20;;;;;;;12.23;5.97;;;21.50;99.90;;;;;;4952979;28;20039;-73
2021/09/16 17:40:45;;;;;;;8.80;4.78;;;21.40;99.90;;;;;;4952592;28;20082;-72
2021/09/16 17:43:13;;;;;;;13.77;4.90;;;21.40;99.90;;;;;;4952989;28;20102;-73
2021/09/16 17:45:39;;;;;;;8.90;5.45;;;21.40;99.90;;;;;;4953298;29;20038;-73
2021/09/16 17:48:05;;;;;;;10.60;4.93;;;21.20;99.90;;;;;;4952790;28;20019;-73
2021/09/16 17:50:31;;;;;;;12.48;5.30;;;21.20;99.90;;;;;;4952727;28;20456;-73
2021/09/16 17:52:56;;;;;;;14.90;4.88;;;21.10;99.90;;;;;;4952858;29;20039;-72